Time;durP1;ratioP1;P1;durP2;ratioP2;P2;SDS_P1;SDS_P2;PMS_P1;PMS_P2;Temp;Humidity;BMP_temperature;BMP_pressure;BME280_temperature;BME280_humidity;BME280_pressure;Samples;Min_cycle;Max_cycle;Signal;HPM_P1;HPM_P2
2022/11/05 00:10:46;;;;;;;;;;;9.00;99.90;;;;;;7366014;19;111404;-88
2022/11/05 00:19:05;;;;;;;;;;;8.80;99.90;;;;;;7336114;19;110340;-88
2022/11/05 00:27:03;;;;;;;;;;;8.70;99.90;;;;;;7337153;19;112812;-88
2022/11/05 00:29:30;;;;;;;;;;;8.60;99.90;;;;;;7337568;19;108997;-88
2022/11/05 00:31:57;;;;;;;;;;;8.70;99.90;;;;;;7338017;19;110224;-88
2022/11/05 00:34:24;;;;;;;;;;;8.60;99.90;;;;;;7335523;19;115750;-87
2022/11/05 00:36:51;;;;;;;;;;;8.60;99.90;;;;;;7337140;19;108340;-88
2022/11/05 00:39:18;;;;;;;;;;;8.60;99.90;;;;;;7337198;19;109368;-88
2022/11/05 00:44:58;;;;;;;;;;;8.50;99.90;;;;;;7339048;19;110341;-88
2022/11/05 00:50:02;;;;;;;;;;;8.30;99.90;;;;;;7339763;19;108914;-88
2022/11/05 00:55:15;;;;;;;;;;;8.20;99.90;;;;;;7335893;19;110985;-87
2022/11/05 00:57:41;;;;;;;;;;;8.20;99.90;;;;;;7335786;19;108787;-87
2022/11/05 01:00:10;;;;;;;;;;;8.20;99.90;;;;;;7337081;19;109278;-88
2022/11/05 01:02:36;;;;;;;;;;;8.20;99.90;;;;;;7336196;19;109836;-88
2022/11/05 01:05:04;;;;;;;;;;;8.20;99.90;;;;;;7337436;19;110073;-88
2022/11/05 01:07:31;;;;;;;;;;;8.20;99.90;;;;;;7332116;19;109726;-88
2022/11/05 01:09:58;;;;;;;;;;;8.20;99.90;;;;;;7344064;19;108877;-87
2022/11/05 01:12:25;;;;;;;;;;;8.20;99.90;;;;;;7337148;19;112237;-88
2022/11/05 01:14:51;;;;;;;;;;;8.20;99.90;;;;;;7337356;19;110812;-87
2022/11/05 01:17:18;;;;;;;;;;;8.20;99.90;;;;;;7336111;19;108733;-87
2022/11/05 01:19:45;;;;;;;;;;;8.20;99.90;;;;;;7338425;19;110094;-88
2022/11/05 01:22:13;;;;;;;;;;;8.20;99.90;;;;;;7335324;19;112997;-88
2022/11/05 01:24:41;;;;;;;;;;;8.20;99.90;;;;;;7337066;19;108354;-88
2022/11/05 01:27:07;;;;;;;;;;;8.10;99.90;;;;;;7337899;19;109858;-88
2022/11/05 01:29:34;;;;;;;;;;;8.10;99.90;;;;;;7336770;19;110806;-87
2022/11/05 01:32:01;;;;;;;;;;;8.10;99.90;;;;;;7343239;19;108518;-88
2022/11/05 01:34:28;;;;;;;;;;;8.00;99.90;;;;;;7335279;19;111045;-88
2022/11/05 01:36:55;;;;;;;;;;;8.00;99.90;;;;;;7337560;19;108902;-88
2022/11/05 01:39:22;;;;;;;;;;;8.00;99.90;;;;;;7336808;19;110682;-88
2022/11/05 01:41:48;;;;;;;;;;;8.00;99.90;;;;;;7337962;19;109988;-88
2022/11/05 01:44:34;;;;;;;;;;;8.00;99.90;;;;;;7334688;19;108303;-87
2022/11/05 01:47:01;;;;;;;;;;;7.90;99.90;;;;;;7335988;19;108864;-88
2022/11/05 01:49:30;;;;;;;;;;;7.90;99.90;;;;;;7334981;19;110989;-88
2022/11/05 01:51:58;;;;;;;;;;;7.80;99.90;;;;;;7337846;19;108691;-89
2022/11/05 01:54:28;;;;;;;;;;;7.80;99.90;;;;;;7341585;19;109112;-88
2022/11/05 01:56:57;;;;;;;;;;;7.70;99.90;;;;;;7338346;19;108449;-88
2022/11/05 01:59:27;;;;;;;;;;;7.70;99.90;;;;;;7335329;19;109142;-88
2022/11/05 02:01:54;;;;;;;;;;;7.60;99.90;;;;;;7335359;19;109903;-88
2022/11/05 02:04:34;;;;;;;;;;;7.60;99.90;;;;;;7334595;19;109050;-88
2022/11/05 02:07:03;;;;;;;;;;;7.70;99.90;;;;;;7338994;19;109563;-88
2022/11/05 02:09:36;;;;;;;;;;;7.70;99.90;;;;;;7331945;19;130531;-88
2022/11/05 02:12:03;;;;;;;;;;;7.70;99.90;;;;;;7335605;19;110065;-88
2022/11/05 02:14:30;;;;;;;;;;;7.70;99.90;;;;;;7337207;19;112217;-88
2022/11/05 02:17:02;;;;;;;;;;;7.70;99.90;;;;;;7336605;19;109849;-88
2022/11/05 02:19:48;;;;;;;;;;;7.70;99.90;;;;;;7333411;19;108930;-88
2022/11/05 02:22:33;;;;;;;;;;;7.70;99.90;;;;;;7334300;19;109450;-88
2022/11/05 02:25:16;;;;;;;;;;;7.70;99.90;;;;;;7334984;19;108411;-88
2022/11/05 02:27:49;;;;;;;;;;;7.70;99.90;;;;;;7337173;19;110441;-87
2022/11/05 02:30:34;;;;;;;;;;;7.70;99.90;;;;;;7338511;19;110818;-88
2022/11/05 02:33:07;;;;;;;;;;;7.70;99.90;;;;;;7339744;19;108757;-88
2022/11/05 02:35:34;;;;;;;;;;;7.70;99.90;;;;;;7337611;19;109461;-87
2022/11/05 02:38:01;;;;;;;;;;;7.70;99.90;;;;;;7343135;19;112640;-88
2022/11/05 02:40:35;;;;;;;;;;;7.60;99.90;;;;;;7340556;19;109815;-88
2022/11/05 02:43:02;;;;;;;;;;;7.60;99.90;;;;;;7338699;19;112469;-88
2022/11/05 02:45:33;;;;;;;;;;;7.70;99.90;;;;;;7339747;19;109333;-86
2022/11/05 02:48:09;;;;;;;;;;;7.70;99.90;;;;;;7340861;19;109053;-88
2022/11/05 02:50:41;;;;;;;;;;;7.70;99.90;;;;;;7338522;19;110028;-88
2022/11/05 02:53:14;;;;;;;;;;;7.70;99.90;;;;;;7341367;19;108403;-87
2022/11/05 02:55:43;;;;;;;;;;;7.60;99.90;;;;;;7337698;19;108967;-88
2022/11/05 02:58:10;;;;;;;;;;;7.60;99.90;;;;;;7342102;19;111330;-88
2022/11/05 03:00:40;;;;;;;;;;;7.70;99.90;;;;;;7342412;19;108846;-88
2022/11/05 03:03:12;;;;;;;;;;;7.70;99.90;;;;;;7337011;19;110308;-88
2022/11/05 03:05:47;;;;;;;;;;;7.70;99.90;;;;;;7336890;19;108591;-87
2022/11/05 03:08:21;;;;;;;;;;;7.70;99.90;;;;;;7337940;19;109526;-87
2022/11/05 03:10:58;;;;;;;;;;;7.70;99.90;;;;;;7335247;19;109155;-87
2022/11/05 03:13:38;;;;;;;;;;;7.60;99.90;;;;;;7338758;19;108572;-88
2022/11/05 03:16:09;;;;;;;;;;;7.60;99.90;;;;;;7336196;19;109339;-87
2022/11/05 03:18:36;;;;;;;;;;;7.60;99.90;;;;;;7336684;19;110034;-87
2022/11/05 03:21:21;;;;;;;;;;;7.50;99.90;;;;;;7337617;19;109801;-88
2022/11/05 03:23:54;;;;;;;;;;;7.50;99.90;;;;;;7343336;19;109297;-87
2022/11/05 03:26:24;;;;;;;;;;;7.50;99.90;;;;;;7344127;19;108876;-87
2022/11/05 03:28:55;;;;;;;;;;;7.50;99.90;;;;;;7345864;19;109549;-87
2022/11/05 03:31:23;;;;;;;;;;;7.40;99.90;;;;;;7345517;19;110668;-87
2022/11/05 03:33:52;;;;;;;;;;;7.40;99.90;;;;;;7344497;19;108875;-87
2022/11/05 03:36:22;;;;;;;;;;;7.40;99.90;;;;;;7348673;19;109383;-87
2022/11/05 03:38:50;;;;;;;;;;;7.40;99.90;;;;;;7345435;19;113069;-87
2022/11/05 03:41:18;;;;;;;;;;;7.30;99.90;;;;;;7346003;19;108543;-87
2022/11/05 03:43:47;;;;;;;;;;;7.30;99.90;;;;;;7347301;19;109933;-87
2022/11/05 03:46:20;;;;;;;;;;;7.30;99.90;;;;;;7350009;19;110462;-87
2022/11/05 03:48:51;;;;;;;;;;;7.30;99.90;;;;;;7348250;19;109132;-88
2022/11/05 03:51:18;;;;;;;;;;;7.30;99.90;;;;;;7343143;19;110808;-87
2022/11/05 03:53:48;;;;;;;;;;;7.30;99.90;;;;;;7345807;19;108567;-87
2022/11/05 03:56:29;;;;;;;;;;;7.30;99.90;;;;;;7342763;19;109914;-88
2022/11/05 03:58:56;;;;;;;;;;;7.20;99.90;;;;;;7347308;19;111118;-88
2022/11/05 04:01:25;;;;;;;;;;;7.20;99.90;;;;;;7348225;19;108414;-87
2022/11/05 04:03:52;;;;;;;;;;;7.10;99.90;;;;;;7351118;19;109148;-87
2022/11/05 04:14:35;;;;;;;;;;;7.10;99.90;;;;;;7373360;19;108341;-87
2022/11/05 04:17:05;;;;;;;;;;;7.10;99.90;;;;;;7375582;19;107534;-87
2022/11/05 04:25:05;;;;;;;;;;;7.10;99.90;;;;;;7374507;19;107911;-87
2022/11/05 04:27:32;;;;;;;;;;;7.10;99.90;;;;;;7373099;19;109208;-86
2022/11/05 04:30:17;;;;;;;;;;;7.10;99.90;;;;;;7382285;19;108327;-87
2022/11/05 04:32:54;;;;;;;;;;;7.10;99.90;;;;;;7372081;19;108844;-86
2022/11/05 04:35:23;;;;;;;;;;;7.10;99.90;;;;;;7372043;19;108622;-87
2022/11/05 04:37:50;;;;;;;;;;;7.10;99.90;;;;;;7371079;19;111672;-86
2022/11/05 04:40:17;;;;;;;;;;;7.00;99.90;;;;;;7356112;19;110347;-87
2022/11/05 04:42:44;;;;;;;;;;;7.00;99.90;;;;;;7344697;19;112004;-87
2022/11/05 04:45:11;;;;;;;;;;;7.00;99.90;;;;;;7342154;19;112500;-87
2022/11/05 04:47:38;;;;;;;;;;;6.90;99.90;;;;;;7343110;19;109697;-86
2022/11/05 04:50:05;;;;;;;;;;;7.00;99.90;;;;;;7347646;19;108670;-87
2022/11/05 04:52:32;;;;;;;;;;;6.90;99.90;;;;;;7351385;19;111086;-86
2022/11/05 04:54:59;;;;;;;;;;;6.90;99.90;;;;;;7345696;19;108403;-87
2022/11/05 04:57:25;;;;;;;;;;;6.90;99.90;;;;;;7345986;19;112734;-87
2022/11/05 04:59:53;;;;;;;;;;;6.90;99.90;;;;;;7344454;19;109986;-86
2022/11/05 05:02:20;;;;;;;;;;;6.80;99.90;;;;;;7345992;19;108777;-87
2022/11/05 05:04:47;;;;;;;;;;;6.80;99.90;;;;;;7346096;19;108524;-87
2022/11/05 05:07:14;;;;;;;;;;;6.80;99.90;;;;;;7343297;19;109415;-87
2022/11/05 05:09:41;;;;;;;;;;;6.80;99.90;;;;;;7346033;19;109837;-87
2022/11/05 05:12:08;;;;;;;;;;;6.70;99.90;;;;;;7343816;19;110100;-86
2022/11/05 05:14:35;;;;;;;;;;;6.70;99.90;;;;;;7351373;19;109553;-87
2022/11/05 05:17:02;;;;;;;;;;;6.70;99.90;;;;;;7343908;19;109493;-86
2022/11/05 05:19:29;;;;;;;;;;;6.70;99.90;;;;;;7345496;19;108882;-86
2022/11/05 05:21:55;;;;;;;;;;;6.70;99.90;;;;;;7346836;19;109946;-86
2022/11/05 05:24:23;;;;;;;;;;;6.70;99.90;;;;;;7346567;19;109072;-87
2022/11/05 05:26:50;;;;;;;;;;;6.70;99.90;;;;;;7344078;19;110175;-86
2022/11/05 05:29:17;;;;;;;;;;;6.70;99.90;;;;;;7344333;19;108256;-86
2022/11/05 05:31:44;;;;;;;;;;;6.70;99.90;;;;;;7345577;19;111611;-86
2022/11/05 05:34:12;;;;;;;;;;;6.70;99.90;;;;;;7343548;19;111007;-87
2022/11/05 05:36:39;;;;;;;;;;;6.60;99.90;;;;;;7350391;19;109222;-85
2022/11/05 05:39:06;;;;;;;;;;;6.70;99.90;;;;;;7341986;19;110364;-86
2022/11/05 05:41:33;;;;;;;;;;;6.80;99.90;;;;;;7343995;19;108682;-86
2022/11/05 05:44:00;;;;;;;;;;;6.80;99.90;;;;;;7342826;19;110634;-86
2022/11/05 05:46:27;;;;;;;;;;;6.90;99.90;;;;;;7346201;19;108370;-87
2022/11/05 05:48:54;;;;;;;;;;;6.90;99.90;;;;;;7343271;19;108336;-87
2022/11/05 05:51:21;;;;;;;;;;;6.90;99.90;;;;;;7344940;19;108599;-87
2022/11/05 05:53:48;;;;;;;;;;;7.00;99.90;;;;;;7345772;19;110272;-88
2022/11/05 05:56:19;;;;;;;;;;;7.00;99.90;;;;;;7344598;19;108573;-86
2022/11/05 05:58:46;;;;;;;;;;;7.00;99.90;;;;;;7349009;19;108672;-86
2022/11/05 06:01:14;;;;;;;;;;;7.10;99.90;;;;;;7342695;19;108642;-87
2022/11/05 06:03:46;;;;;;;;;;;7.10;99.90;;;;;;7342919;19;112043;-85
2022/11/05 06:06:13;;;;;;;;;;;7.10;99.90;;;;;;7341719;19;110243;-86
2022/11/05 06:08:41;;;;;;;;;;;7.10;99.90;;;;;;7342341;19;108546;-87
2022/11/05 06:11:08;;;;;;;;;;;7.10;99.90;;;;;;7342778;19;108571;-85
2022/11/05 06:13:36;;;;;;;;;;;7.10;99.90;;;;;;7341541;19;112929;-87
2022/11/05 06:16:04;;;;;;;;;;;7.10;99.90;;;;;;7342648;19;108657;-86
2022/11/05 06:18:31;;;;;;;;;;;7.10;99.90;;;;;;7341767;19;109189;-86
2022/11/05 06:21:09;;;;;;;;;;;7.10;99.90;;;;;;7346857;19;113209;-87
2022/11/05 06:23:37;;;;;;;;;;;7.10;99.90;;;;;;7340755;19;111743;-87
2022/11/05 06:26:05;;;;;;;;;;;7.10;99.90;;;;;;7342694;19;112570;-87
2022/11/05 06:28:32;;;;;;;;;;;7.10;99.90;;;;;;7340367;19;108517;-86
2022/11/05 06:30:59;;;;;;;;;;;7.00;99.90;;;;;;7341478;19;109720;-86
2022/11/05 06:33:26;;;;;;;;;;;7.00;99.90;;;;;;7339927;19;114152;-86
2022/11/05 06:35:53;;;;;;;;;;;7.00;99.90;;;;;;7342367;19;108984;-86
2022/11/05 06:38:20;;;;;;;;;;;7.00;99.90;;;;;;7338742;19;108399;-86
2022/11/05 06:40:47;;;;;;;;;;;7.00;99.90;;;;;;7345249;19;112067;-86
2022/11/05 06:43:14;;;;;;;;;;;7.00;99.90;;;;;;7342498;19;113635;-87
2022/11/05 06:45:41;;;;;;;;;;;7.00;99.90;;;;;;7340385;19;110454;-87
2022/11/05 06:48:08;;;;;;;;;;;7.00;99.90;;;;;;7341662;19;109595;-86
2022/11/05 06:50:35;;;;;;;;;;;7.00;99.90;;;;;;7342279;19;109370;-87
2022/11/05 06:53:02;;;;;;;;;;;7.00;99.90;;;;;;7341432;19;109585;-86
2022/11/05 06:55:30;;;;;;;;;;;7.00;99.90;;;;;;7341474;19;108498;-87
2022/11/05 06:57:57;;;;;;;;;;;7.00;99.90;;;;;;7341911;19;109242;-86
2022/11/05 07:00:24;;;;;;;;;;;7.10;99.90;;;;;;7352457;19;114276;-86
2022/11/05 07:02:51;;;;;;;;;;;7.00;99.90;;;;;;7359617;19;108496;-87
2022/11/05 07:05:19;;;;;;;;;;;7.00;99.90;;;;;;7353442;19;110327;-87
2022/11/05 07:07:45;;;;;;;;;;;7.10;99.90;;;;;;7356991;19;108501;-87
2022/11/05 07:10:14;;;;;;;;;;;7.10;99.90;;;;;;7354633;19;109422;-87
2022/11/05 07:12:41;;;;;;;;;;;7.10;99.90;;;;;;7355185;19;110737;-87
2022/11/05 07:15:10;;;;;;;;;;;7.10;99.90;;;;;;7354303;19;108748;-86
2022/11/05 07:17:37;;;;;;;;;;;7.10;99.90;;;;;;7352600;19;111626;-86
2022/11/05 07:20:04;;;;;;;;;;;7.10;99.90;;;;;;7354905;19;112655;-86
2022/11/05 07:22:32;;;;;;;;;;;7.20;99.90;;;;;;7354072;19;108441;-86
2022/11/05 07:24:59;;;;;;;;;;;7.20;99.90;;;;;;7359592;19;109649;-86
2022/11/05 07:27:26;;;;;;;;;;;7.20;99.90;;;;;;7352760;19;108411;-87
2022/11/05 07:29:55;;;;;;;;;;;7.20;99.90;;;;;;7354630;19;108430;-87
2022/11/05 07:32:22;;;;;;;;;;;7.30;99.90;;;;;;7352637;19;110060;-86
2022/11/05 07:34:49;;;;;;;;;;;7.30;99.90;;;;;;7353215;19;109599;-85
2022/11/05 07:37:16;;;;;;;;;;;7.40;99.90;;;;;;7351468;19;112812;-87
2022/11/05 07:39:43;;;;;;;;;;;7.40;99.90;;;;;;7352517;19;110786;-86
2022/11/05 07:42:12;;;;;;;;;;;7.40;99.90;;;;;;7354846;19;108763;-86
2022/11/05 07:44:40;;;;;;;;;;;7.50;99.90;;;;;;7353094;19;110394;-86
2022/11/05 07:47:07;;;;;;;;;;;7.50;99.90;;;;;;7358304;19;110333;-87
2022/11/05 07:49:34;;;;;;;;;;;7.50;99.90;;;;;;7356123;19;108420;-87
2022/11/05 07:52:00;;;;;;;;;;;7.60;99.90;;;;;;7356466;19;110399;-87
2022/11/05 07:54:27;;;;;;;;;;;7.60;99.90;;;;;;7351133;19;108462;-86
2022/11/05 07:56:54;;;;;;;;;;;7.70;99.90;;;;;;7352474;19;110794;-87
2022/11/05 07:59:21;;;;;;;;;;;7.70;99.90;;;;;;7352379;19;109223;-87
2022/11/05 08:01:48;;;;;;;;;;;7.70;99.90;;;;;;7352032;19;108334;-87
2022/11/05 08:04:15;;;;;;;;;;;7.80;99.90;;;;;;7351961;19;109280;-88
2022/11/05 08:06:42;;;;;;;;;;;7.80;99.90;;;;;;7352024;19;109597;-86
2022/11/05 08:09:09;;;;;;;;;;;7.90;99.90;;;;;;7360804;19;108700;-86
2022/11/05 08:11:36;;;;;;;;;;;8.00;99.90;;;;;;7347885;19;113245;-85
2022/11/05 08:14:03;;;;;;;;;;;8.10;99.90;;;;;;7343973;19;108821;-84
2022/11/05 08:16:30;;;;;;;;;;;8.20;99.90;;;;;;7347165;19;109311;-85
2022/11/05 08:18:57;;;;;;;;;;;8.20;99.90;;;;;;7349274;19;110380;-85
2022/11/05 08:21:23;;;;;;;;;;;8.20;99.90;;;;;;7357519;19;108351;-84
2022/11/05 08:23:50;;;;;;;;;;;8.30;99.90;;;;;;7373502;19;108384;-85
2022/11/05 08:26:18;;;;;;;;;;;8.30;99.90;;;;;;7372299;19;110527;-85
2022/11/05 08:28:45;;;;;;;;;;;8.40;99.90;;;;;;7374027;19;108190;-85
2022/11/05 08:31:14;;;;;;;;;;;8.40;99.90;;;;;;7380107;19;108200;-85
2022/11/05 08:33:41;;;;;;;;;;;8.50;99.90;;;;;;7374882;19;108160;-84
2022/11/05 08:36:08;;;;;;;;;;;8.50;99.90;;;;;;7375678;19;108067;-84
2022/11/05 08:38:34;;;;;;;;;;;8.60;99.90;;;;;;7372835;19;108390;-85
2022/11/05 08:41:01;;;;;;;;;;;8.70;99.90;;;;;;7372632;19;108448;-87
2022/11/05 08:43:28;;;;;;;;;;;8.80;99.90;;;;;;7374046;19;110342;-90
2022/11/05 08:45:55;;;;;;;;;;;8.90;99.90;;;;;;7373098;19;109413;-89
2022/11/05 08:48:22;;;;;;;;;;;9.00;99.90;;;;;;7372745;19;108515;-89
2022/11/05 08:50:49;;;;;;;;;;;9.00;99.90;;;;;;7368658;19;109671;-88
2022/11/05 08:53:16;;;;;;;;;;;9.20;99.90;;;;;;7350348;19;109614;-89
2022/11/05 08:55:43;;;;;;;;;;;9.20;99.90;;;;;;7353367;19;108607;-89
2022/11/05 08:58:11;;;;;;;;;;;9.30;99.90;;;;;;7352547;19;111546;-89
2022/11/05 09:00:38;;;;;;;;;;;9.40;99.90;;;;;;7351216;19;108498;-88
2022/11/05 09:03:09;;;;;;;;;;;9.50;99.90;;;;;;7349154;19;112927;-85
2022/11/05 09:05:38;;;;;;;;;;;9.50;99.90;;;;;;7344192;19;110206;-84
2022/11/05 09:08:12;;;;;;;;;;;9.60;99.90;;;;;;7346136;19;108394;-89
2022/11/05 09:10:39;;;;;;;;;;;9.60;99.90;;;;;;7349102;19;110307;-91
2022/11/05 09:13:06;;;;;;;;;;;9.60;99.90;;;;;;7354793;19;110501;-90
2022/11/05 09:15:40;;;;;;;;;;;9.70;99.90;;;;;;7347096;19;112076;-90
2022/11/05 09:18:10;;;;;;;;;;;9.70;99.90;;;;;;7347303;19;112648;-89
2022/11/05 09:20:38;;;;;;;;;;;9.80;99.90;;;;;;7348774;19;108509;-89
2022/11/05 09:23:06;;;;;;;;;;;9.80;99.90;;;;;;7344492;19;109985;-90
2022/11/05 09:25:33;;;;;;;;;;;9.90;99.90;;;;;;7346461;19;112386;-90
2022/11/05 09:28:07;;;;;;;;;;;9.90;99.90;;;;;;7348660;19;108881;-90
2022/11/05 09:30:37;;;;;;;;;;;9.90;99.90;;;;;;7347125;19;108381;-91
2022/11/05 09:33:04;;;;;;;;;;;10.00;99.90;;;;;;7346241;19;110590;-90
2022/11/05 09:35:31;;;;;;;;;;;10.00;99.90;;;;;;7354666;19;108777;-91
2022/11/05 09:37:58;;;;;;;;;;;10.00;99.90;;;;;;7346708;19;110548;-88
2022/11/05 09:40:29;;;;;;;;;;;10.00;99.90;;;;;;7344614;19;108517;-87
2022/11/05 09:42:56;;;;;;;;;;;10.10;99.90;;;;;;7335440;19;109100;-86
2022/11/05 09:45:25;;;;;;;;;;;10.20;99.90;;;;;;7340863;19;112429;-87
2022/11/05 09:47:55;;;;;;;;;;;10.30;99.90;;;;;;7340775;19;108366;-87
2022/11/05 09:50:27;;;;;;;;;;;10.40;99.90;;;;;;7341419;19;111849;-88
2022/11/05 09:52:54;;;;;;;;;;;10.50;99.90;;;;;;7341770;19;109657;-88
2022/11/05 09:55:30;;;;;;;;;;;10.60;99.90;;;;;;7344344;19;108823;-88
2022/11/05 09:57:59;;;;;;;;;;;10.60;99.90;;;;;;7348012;19;111137;-88
2022/11/05 10:00:27;;;;;;;;;;;10.70;99.90;;;;;;7342263;19;108997;-88
2022/11/05 10:02:56;;;;;;;;;;;10.80;99.90;;;;;;7343120;19;112435;-87
2022/11/05 10:05:24;;;;;;;;;;;10.90;99.90;;;;;;7340496;19;114225;-88
2022/11/05 10:07:54;;;;;;;;;;;11.00;99.90;;;;;;7341437;19;108477;-86
2022/11/05 10:10:22;;;;;;;;;;;11.00;99.90;;;;;;7341464;19;111461;-88
2022/11/05 10:12:51;;;;;;;;;;;11.10;99.90;;;;;;7343097;19;110163;-87
2022/11/05 10:15:20;;;;;;;;;;;11.20;99.90;;;;;;7342004;19;108250;-87
2022/11/05 10:17:49;;;;;;;;;;;11.20;99.90;;;;;;7342498;19;110364;-88
2022/11/05 10:20:22;;;;;;;;;;;11.30;99.90;;;;;;7345354;19;110549;-87
2022/11/05 10:22:54;;;;;;;;;;;11.30;99.90;;;;;;7342465;19;108957;-88
2022/11/05 10:25:23;;;;;;;;;;;11.40;99.90;;;;;;7340305;19;112885;-88
2022/11/05 10:27:54;;;;;;;;;;;11.50;99.90;;;;;;7343755;19;108292;-88
2022/11/05 10:30:21;;;;;;;;;;;11.50;99.90;;;;;;7343087;19;110181;-88
2022/11/05 10:32:51;;;;;;;;;;;11.60;99.90;;;;;;7342050;19;109856;-89
2022/11/05 10:35:21;;;;;;;;;;;11.60;99.90;;;;;;7339770;19;108467;-89
2022/11/05 10:37:49;;;;;;;;;;;11.60;99.90;;;;;;7343469;19;112984;-90
2022/11/05 10:40:35;;;;;;;;;;;11.70;99.90;;;;;;7341276;19;109885;-89
2022/11/05 10:43:09;;;;;;;;;;;11.70;99.90;;;;;;7350275;19;108825;-88
2022/11/05 10:45:45;;;;;;;;;;;11.80;99.90;;;;;;7342338;19;110237;-89
2022/11/05 10:48:14;;;;;;;;;;;11.80;99.90;;;;;;7346559;19;108626;-89
2022/11/05 10:50:42;;;;;;;;;;;11.90;99.90;;;;;;7343261;19;111533;-89
2022/11/05 10:53:18;;;;;;;;;;;11.90;99.90;;;;;;7342045;19;109211;-89
2022/11/05 10:55:47;;;;;;;;;;;11.90;99.90;;;;;;7343854;19;108256;-89
2022/11/05 10:58:14;;;;;;;;;;;12.00;99.90;;;;;;7344667;19;109048;-89
2022/11/05 11:00:41;;;;;;;;;;;12.10;99.90;;;;;;7341273;19;110037;-89
2022/11/05 11:03:27;;;;;;;;;;;12.30;99.90;;;;;;7347789;19;109064;-89
2022/11/05 11:06:02;;;;;;;;;;;12.40;99.90;;;;;;7340453;19;110122;-88
2022/11/05 11:08:32;;;;;;;;;;;12.50;99.90;;;;;;7341072;19;108552;-90
2022/11/05 11:11:04;;;;;;;;;;;12.50;99.90;;;;;;7341920;19;108825;-89
2022/11/05 11:13:47;;;;;;;;;;;12.60;99.90;;;;;;7341552;19;110013;-89
2022/11/05 11:16:18;;;;;;;;;;;12.70;99.90;;;;;;7341943;19;108516;-88
2022/11/05 11:18:44;;;;;;;;;;;12.80;99.90;;;;;;7343371;19;110248;-89
2022/11/05 11:21:13;;;;;;;;;;;12.90;99.90;;;;;;7342439;19;109320;-89
2022/11/05 11:23:41;;;;;;;;;;;13.00;99.90;;;;;;7343387;19;108923;-89
2022/11/05 11:26:09;;;;;;;;;;;13.00;99.90;;;;;;7348638;19;108432;-89
2022/11/05 11:28:38;;;;;;;;;;;13.10;99.90;;;;;;7344783;19;108478;-88
2022/11/05 11:31:05;;;;;;;;;;;13.20;99.90;;;;;;7341711;19;108641;-89
2022/11/05 11:33:32;;;;;;;;;;;13.20;99.90;;;;;;7342107;19;110865;-90
2022/11/05 11:35:59;;;;;;;;;;;13.30;99.90;;;;;;7341471;19;109277;-90
2022/11/05 11:38:31;;;;;;;;;;;13.40;99.90;;;;;;7342711;19;108833;-89
2022/11/05 11:41:15;;;;;;;;;;;13.40;99.90;;;;;;7340896;19;111645;-89
2022/11/05 11:43:43;;;;;;;;;;;13.40;99.90;;;;;;7340135;19;108842;-89
2022/11/05 11:46:17;;;;;;;;;;;13.50;99.90;;;;;;7342287;19;111841;-90
2022/11/05 11:48:46;;;;;;;;;;;13.60;99.90;;;;;;7354291;19;112627;-89
2022/11/05 11:51:33;;;;;;;;;;;13.60;99.90;;;;;;7346518;19;108661;-89
2022/11/05 11:54:00;;;;;;;;;;;13.70;99.90;;;;;;7347985;19;110335;-89
2022/11/05 11:56:27;;;;;;;;;;;13.80;99.90;;;;;;7347585;19;108661;-89
2022/11/05 11:58:56;;;;;;;;;;;13.90;99.90;;;;;;7346657;19;108832;-88
2022/11/05 12:01:43;;;;;;;;;;;13.90;99.90;;;;;;7343761;19;110010;-88
2022/11/05 12:04:16;;;;;;;;;;;14.00;99.90;;;;;;7342708;19;108350;-87
2022/11/05 12:06:46;;;;;;;;;;;14.20;99.90;;;;;;7343782;19;111618;-88
2022/11/05 12:09:27;;;;;;;;;;;14.40;99.90;;;;;;7343226;19;109208;-89
2022/11/05 12:12:01;;;;;;;;;;;14.50;99.90;;;;;;7350612;19;108824;-87
2022/11/05 12:14:47;;;;;;;;;;;14.70;99.90;;;;;;7344971;19;112917;-86
2022/11/05 12:17:17;;;;;;;;;;;14.90;99.90;;;;;;7343166;19;109043;-88
2022/11/05 12:20:03;;;;;;;;;;;15.10;99.90;;;;;;7345789;19;110358;-89
2022/11/05 12:22:37;;;;;;;;;;;15.10;99.90;;;;;;7343075;19;110474;-88
2022/11/05 12:25:13;;;;;;;;;;;15.20;99.90;;;;;;7346810;19;108533;-88
2022/11/05 12:27:40;;;;;;;;;;;15.20;99.90;;;;;;7346276;19;112060;-89
2022/11/05 12:30:10;;;;;;;;;;;15.30;99.90;;;;;;7348134;19;113348;-89
2022/11/05 12:32:46;;;;;;;;;;;15.30;99.90;;;;;;7345404;19;108505;-88
2022/11/05 12:35:16;;;;;;;;;;;15.30;99.90;;;;;;7351120;19;108410;-89
2022/11/05 12:37:49;;;;;;;;;;;15.20;99.90;;;;;;7346498;19;108544;-90
2022/11/05 12:40:28;;;;;;;;;;;15.10;99.90;;;;;;7345997;19;110269;-89
2022/11/05 12:43:11;;;;;;;;;;;15.10;99.90;;;;;;7345104;19;110706;-88
2022/11/05 12:45:42;;;;;;;;;;;15.10;99.90;;;;;;7344560;19;108656;-89
2022/11/05 12:48:12;;;;;;;;;;;15.10;99.90;;;;;;7345771;19;111252;-89
2022/11/05 12:50:38;;;;;;;;;;;15.00;99.90;;;;;;7343573;19;110383;-88
2022/11/05 12:53:22;;;;;;;;;;;14.90;99.90;;;;;;7345234;19;108606;-89
2022/11/05 12:55:50;;;;;;;;;;;14.90;99.90;;;;;;7351939;19;109123;-89
2022/11/05 12:58:35;;;;;;;;;;;14.80;99.90;;;;;;7345548;19;108352;-89
2022/11/05 13:01:12;;;;;;;;;;;14.80;99.90;;;;;;7345216;19;109289;-88
2022/11/05 13:03:48;;;;;;;;;;;14.80;99.90;;;;;;7345772;19;112556;-88
2022/11/05 13:06:18;;;;;;;;;;;14.80;99.90;;;;;;7342765;19;108748;-89
2022/11/05 13:08:51;;;;;;;;;;;14.80;99.90;;;;;;7345780;19;109500;-89
2022/11/05 13:11:39;;;;;;;;;;;14.80;99.90;;;;;;7345345;19;110193;-87
2022/11/05 13:14:06;;;;;;;;;;;14.80;99.90;;;;;;7344547;19;108899;-89
2022/11/05 13:16:37;;;;;;;;;;;14.90;99.90;;;;;;7345173;19;109031;-89
2022/11/05 13:19:13;;;;;;;;;;;14.90;99.90;;;;;;7348661;19;110302;-88
2022/11/05 13:21:45;;;;;;;;;;;14.90;99.90;;;;;;7343284;19;109692;-89
2022/11/05 13:24:15;;;;;;;;;;;15.00;99.90;;;;;;7347037;19;111268;-89
2022/11/05 13:26:45;;;;;;;;;;;15.00;99.90;;;;;;7343847;19;108604;-89
2022/11/05 13:29:22;;;;;;;;;;;15.10;99.90;;;;;;7343376;19;108564;-88
2022/11/05 13:31:51;;;;;;;;;;;15.10;99.90;;;;;;7344091;19;111944;-89
2022/11/05 13:34:19;;;;;;;;;;;15.10;99.90;;;;;;7345553;19;108547;-89
2022/11/05 13:39:46;;;;;;;;;;;15.10;99.90;;;;;;7342438;19;113307;-87
2022/11/05 13:42:13;;;;;;;;;;;15.20;99.90;;;;;;7345711;19;108680;-87
2022/11/05 13:44:55;;;;;;;;;;;15.20;99.90;;;;;;7343472;19;112969;-87
2022/11/05 13:47:22;;;;;;;;;;;15.20;99.90;;;;;;7343987;19;108884;-88
2022/11/05 13:50:08;;;;;;;;;;;15.20;99.90;;;;;;7342125;19;108849;-87
2022/11/05 13:52:54;;;;;;;;;;;15.20;99.90;;;;;;7340014;19;113343;-87
2022/11/05 13:55:36;;;;;;;;;;;15.20;99.90;;;;;;7343079;19;108769;-87
2022/11/05 13:58:22;;;;;;;;;;;15.10;99.90;;;;;;7340380;19;112299;-87
2022/11/05 14:01:08;;;;;;;;;;;15.10;99.90;;;;;;7343899;19;110400;-89
2022/11/05 14:03:35;;;;;;;;;;;15.10;99.90;;;;;;7343609;19;108882;-89
2022/11/05 14:06:05;;;;;;;;;;;15.00;99.90;;;;;;7346887;19;111288;-88
2022/11/05 14:08:40;;;;;;;;;;;15.00;99.90;;;;;;7340902;19;108479;-87
2022/11/05 14:11:27;;;;;;;;;;;15.00;99.90;;;;;;7344205;19;110484;-90
2022/11/05 14:13:58;;;;;;;;;;;15.00;99.90;;;;;;7344603;19;112245;-91
2022/11/05 14:16:27;;;;;;;;;;;15.00;99.90;;;;;;7346245;19;108339;-91
2022/11/05 14:19:13;;;;;;;;;;;14.90;99.90;;;;;;7346407;19;111320;-90
2022/11/05 14:22:06;;;;;;;;;;;14.90;99.90;;;;;;7346234;19;109871;-90
2022/11/05 14:24:36;;;;;;;;;;;14.90;99.90;;;;;;7342511;19;108384;-91
2022/11/05 14:27:03;;;;;;;;;;;14.80;99.90;;;;;;7345983;19;110911;-91
2022/11/05 14:29:38;;;;;;;;;;;14.80;99.90;;;;;;7351405;19;112984;-89
2022/11/05 14:32:20;;;;;;;;;;;14.70;99.90;;;;;;7347706;19;110458;-89
2022/11/05 14:34:52;;;;;;;;;;;14.60;99.90;;;;;;7344911;19;109257;-89
2022/11/05 14:37:24;;;;;;;;;;;14.60;99.90;;;;;;7342311;19;108600;-92
2022/11/05 14:39:51;;;;;;;;;;;14.60;99.90;;;;;;7342504;19;109419;-92
2022/11/05 14:42:29;;;;;;;;;;;14.50;99.90;;;;;;7344214;19;109363;-91
2022/11/05 14:44:55;;;;;;;;;;;14.50;99.90;;;;;;7343025;19;108627;-91
2022/11/05 14:47:24;;;;;;;;;;;14.40;99.90;;;;;;7343358;19;109297;-92
2022/11/05 14:49:58;;;;;;;;;;;14.40;99.90;;;;;;7360992;19;109895;-90
2022/11/05 14:52:25;;;;;;;;;;;14.40;99.90;;;;;;7375142;19;108193;-92
2022/11/05 14:54:53;;;;;;;;;;;14.30;99.90;;;;;;7369931;19;111231;-91
2022/11/05 14:57:43;;;;;;;;;;;14.20;99.90;;;;;;7371788;19;108242;-91
2022/11/05 15:00:29;;;;;;;;;;;14.20;99.90;;;;;;7371052;19;108128;-89
2022/11/05 15:02:56;;;;;;;;;;;14.20;99.90;;;;;;7371513;19;110033;-92
2022/11/05 15:05:29;;;;;;;;;;;14.20;99.90;;;;;;7369922;19;109000;-91
2022/11/05 15:07:57;;;;;;;;;;;14.10;99.90;;;;;;7372008;19;107801;-91
2022/11/05 15:10:32;;;;;;;;;;;14.00;99.90;;;;;;7367997;19;109297;-91
2022/11/05 15:13:03;;;;;;;;;;;14.00;99.90;;;;;;7376794;19;108168;-90
2022/11/05 15:15:41;;;;;;;;;;;14.00;99.90;;;;;;7367401;19;110024;-91